Chignik, Alaska
Current Conditions -  °F | °C
As of 1:54 PM on Wednesday 22 Oct 2014 (Local Time) from PAKN Reporting Station
Broken Clouds Broken Clouds  
Wind Chill: 25°   Ceiling: 25000
Heat Index: 36°   Visibility: 10mi
Dew Point: 26°   Wind: 20mph
Humidity: 67%   Direction: 360°N
Pressure: 29.58"   Gusts: 28mph
Location:  58.11°N, 156°W
Report Text: PAKN 222154Z 36017G24KT 10SM FEW021 BKN250 02/M03 A2958 RMK AO2 SLP017 T00221033
Loading
Personal Weather Stations






























Interactive Weather Map
Tropical Storm Tracking
New forecast layout! Learn more

10-Day Weather Forecast

Advertisements
Track Severe Weather on mobile